sensor_id;sensor_type;location;lat;lon;timestamp;pressure;altitude;pressure_sealevel;temperature
13570;BMP180;6856;51.460;7.158;2022-09-06T00:02:07;100465.00;;;26.30
13570;BMP180;6856;51.460;7.158;2022-09-06T00:04:41;100457.00;;;26.30
13570;BMP180;6856;51.460;7.158;2022-09-06T00:07:16;100448.00;;;26.20
13570;BMP180;6856;51.460;7.158;2022-09-06T00:09:51;100452.00;;;26.20
13570;BMP180;6856;51.460;7.158;2022-09-06T00:12:25;100441.00;;;26.20
13570;BMP180;6856;51.460;7.158;2022-09-06T00:14:58;100447.00;;;26.20
13570;BMP180;6856;51.460;7.158;2022-09-06T00:17:32;100456.00;;;26.10
13570;BMP180;6856;51.460;7.158;2022-09-06T00:20:07;100444.00;;;26.10
13570;BMP180;6856;51.460;7.158;2022-09-06T00:22:42;100434.00;;;26.10
13570;BMP180;6856;51.460;7.158;2022-09-06T00:25:16;100437.00;;;26.10
13570;BMP180;6856;51.460;7.158;2022-09-06T00:27:53;100445.00;;;26.00
13570;BMP180;6856;51.460;7.158;2022-09-06T00:30:31;100435.00;;;26.00
13570;BMP180;6856;51.460;7.158;2022-09-06T00:33:05;100424.00;;;26.00
13570;BMP180;6856;51.460;7.158;2022-09-06T00:35:39;100443.00;;;25.90
13570;BMP180;6856;51.460;7.158;2022-09-06T00:38:14;100436.00;;;26.00
13570;BMP180;6856;51.460;7.158;2022-09-06T00:40:47;100432.00;;;25.90
13570;BMP180;6856;51.460;7.158;2022-09-06T00:43:21;100432.00;;;25.90
13570;BMP180;6856;51.460;7.158;2022-09-06T00:45:55;100432.00;;;25.90
13570;BMP180;6856;51.460;7.158;2022-09-06T00:48:29;100431.00;;;25.90
13570;BMP180;6856;51.460;7.158;2022-09-06T00:51:07;100423.00;;;25.80
13570;BMP180;6856;51.460;7.158;2022-09-06T00:53:43;100433.00;;;25.80
13570;BMP180;6856;51.460;7.158;2022-09-06T00:56:17;100434.00;;;25.80
13570;BMP180;6856;51.460;7.158;2022-09-06T00:58:51;100445.00;;;25.80
13570;BMP180;6856;51.460;7.158;2022-09-06T01:01:26;100463.00;;;25.70
13570;BMP180;6856;51.460;7.158;2022-09-06T01:04:02;100476.00;;;25.70
13570;BMP180;6856;51.460;7.158;2022-09-06T01:07:02;100504.00;;;25.60
13570;BMP180;6856;51.460;7.158;2022-09-06T01:09:55;100506.00;;;25.50
13570;BMP180;6856;51.460;7.158;2022-09-06T01:12:49;100493.00;;;25.40
13570;BMP180;6856;51.460;7.158;2022-09-06T01:15:35;100506.00;;;25.30
13570;BMP180;6856;51.460;7.158;2022-09-06T01:18:28;100497.00;;;25.30
13570;BMP180;6856;51.460;7.158;2022-09-06T01:21:17;100507.00;;;25.30
13570;BMP180;6856;51.460;7.158;2022-09-06T01:30:33;100514.00;;;25.20
13570;BMP180;6856;51.460;7.158;2022-09-06T01:33:15;100524.00;;;25.20
13570;BMP180;6856;51.460;7.158;2022-09-06T01:35:56;100497.00;;;25.20
13570;BMP180;6856;51.460;7.158;2022-09-06T01:38:34;100511.00;;;25.20
13570;BMP180;6856;51.460;7.158;2022-09-06T01:41:07;100513.00;;;25.20
13570;BMP180;6856;51.460;7.158;2022-09-06T01:43:47;100494.00;;;25.20
13570;BMP180;6856;51.460;7.158;2022-09-06T01:46:32;100510.00;;;25.10
13570;BMP180;6856;51.460;7.158;2022-09-06T01:49:23;100522.00;;;25.10
13570;BMP180;6856;51.460;7.158;2022-09-06T01:52:13;100522.00;;;25.10
13570;BMP180;6856;51.460;7.158;2022-09-06T01:55:06;100516.00;;;25.10
13570;BMP180;6856;51.460;7.158;2022-09-06T01:58:00;100517.00;;;25.10
13570;BMP180;6856;51.460;7.158;2022-09-06T02:00:49;100514.00;;;25.10
13570;BMP180;6856;51.460;7.158;2022-09-06T02:03:37;100511.00;;;25.20
13570;BMP180;6856;51.460;7.158;2022-09-06T02:06:19;100511.00;;;25.20
13570;BMP180;6856;51.460;7.158;2022-09-06T02:09:01;100506.00;;;25.20
13570;BMP180;6856;51.460;7.158;2022-09-06T02:11:41;100506.00;;;25.20
13570;BMP180;6856;51.460;7.158;2022-09-06T02:14:22;100515.00;;;25.20
13570;BMP180;6856;51.460;7.158;2022-09-06T02:17:00;100520.00;;;25.20
13570;BMP180;6856;51.460;7.158;2022-09-06T02:19:41;100511.00;;;25.20
13570;BMP180;6856;51.460;7.158;2022-09-06T02:22:22;100503.00;;;25.20
13570;BMP180;6856;51.460;7.158;2022-09-06T02:25:00;100504.00;;;25.20
13570;BMP180;6856;51.460;7.158;2022-09-06T02:27:35;100509.00;;;25.20
13570;BMP180;6856;51.460;7.158;2022-09-06T02:30:10;100509.00;;;25.20
13570;BMP180;6856;51.460;7.158;2022-09-06T02:32:54;100503.00;;;25.20
13570;BMP180;6856;51.460;7.158;2022-09-06T02:35:28;100509.00;;;25.20
13570;BMP180;6856;51.460;7.158;2022-09-06T02:38:02;100500.00;;;25.20
13570;BMP180;6856;51.460;7.158;2022-09-06T02:40:36;100501.00;;;25.20
13570;BMP180;6856;51.460;7.158;2022-09-06T02:43:11;100526.00;;;25.20
13570;BMP180;6856;51.460;7.158;2022-09-06T02:45:44;100516.00;;;25.10
13570;BMP180;6856;51.460;7.158;2022-09-06T02:48:19;100507.00;;;25.20
13570;BMP180;6856;51.460;7.158;2022-09-06T02:50:53;100510.00;;;25.10
13570;BMP180;6856;51.460;7.158;2022-09-06T02:53:27;100513.00;;;25.10
13570;BMP180;6856;51.460;7.158;2022-09-06T02:56:01;100519.00;;;25.10
13570;BMP180;6856;51.460;7.158;2022-09-06T02:58:35;100510.00;;;25.00
13570;BMP180;6856;51.460;7.158;2022-09-06T03:01:08;100496.00;;;25.00
13570;BMP180;6856;51.460;7.158;2022-09-06T03:03:44;100490.00;;;25.00
13570;BMP180;6856;51.460;7.158;2022-09-06T03:06:18;100503.00;;;24.90
13570;BMP180;6856;51.460;7.158;2022-09-06T03:08:52;100494.00;;;24.90
13570;BMP180;6856;51.460;7.158;2022-09-06T03:11:25;100509.00;;;24.80
13570;BMP180;6856;51.460;7.158;2022-09-06T03:13:59;100494.00;;;24.80
13570;BMP180;6856;51.460;7.158;2022-09-06T03:16:33;100495.00;;;24.80
13570;BMP180;6856;51.460;7.158;2022-09-06T03:19:09;100496.00;;;24.80
13570;BMP180;6856;51.460;7.158;2022-09-06T03:21:42;100491.00;;;24.70
13570;BMP180;6856;51.460;7.158;2022-09-06T03:24:16;100495.00;;;24.80
13570;BMP180;6856;51.460;7.158;2022-09-06T03:26:49;100501.00;;;24.70
13570;BMP180;6856;51.460;7.158;2022-09-06T03:29:23;100505.00;;;24.70
13570;BMP180;6856;51.460;7.158;2022-09-06T03:31:56;100495.00;;;24.70
13570;BMP180;6856;51.460;7.158;2022-09-06T03:34:31;100489.00;;;24.60
13570;BMP180;6856;51.460;7.158;2022-09-06T03:37:04;100496.00;;;24.60
13570;BMP180;6856;51.460;7.158;2022-09-06T03:39:38;100491.00;;;24.70
13570;BMP180;6856;51.460;7.158;2022-09-06T03:42:12;100489.00;;;24.60
13570;BMP180;6856;51.460;7.158;2022-09-06T03:44:45;100466.00;;;24.60
13570;BMP180;6856;51.460;7.158;2022-09-06T03:47:19;100476.00;;;24.70
13570;BMP180;6856;51.460;7.158;2022-09-06T03:49:54;100469.00;;;24.70
13570;BMP180;6856;51.460;7.158;2022-09-06T03:52:28;100478.00;;;24.70
13570;BMP180;6856;51.460;7.158;2022-09-06T03:55:01;100477.00;;;24.70
13570;BMP180;6856;51.460;7.158;2022-09-06T03:57:35;100477.00;;;24.70
13570;BMP180;6856;51.460;7.158;2022-09-06T04:00:10;100467.00;;;24.70
13570;BMP180;6856;51.460;7.158;2022-09-06T04:02:44;100471.00;;;24.70
13570;BMP180;6856;51.460;7.158;2022-09-06T04:05:19;100446.00;;;24.70
13570;BMP180;6856;51.460;7.158;2022-09-06T04:07:52;100433.00;;;24.70
13570;BMP180;6856;51.460;7.158;2022-09-06T04:10:30;100427.00;;;24.70
13570;BMP180;6856;51.460;7.158;2022-09-06T04:13:03;100446.00;;;24.70
13570;BMP180;6856;51.460;7.158;2022-09-06T04:15:38;100445.00;;;24.70
13570;BMP180;6856;51.460;7.158;2022-09-06T04:18:11;100437.00;;;24.70
13570;BMP180;6856;51.460;7.158;2022-09-06T04:20:48;100453.00;;;24.70
13570;BMP180;6856;51.460;7.158;2022-09-06T04:23:23;100454.00;;;24.70
13570;BMP180;6856;51.460;7.158;2022-09-06T04:25:58;100443.00;;;24.60
13570;BMP180;6856;51.460;7.158;2022-09-06T04:28:31;100453.00;;;24.60
13570;BMP180;6856;51.460;7.158;2022-09-06T04:31:05;100451.00;;;24.50
13570;BMP180;6856;51.460;7.158;2022-09-06T04:33:39;100451.00;;;24.50
13570;BMP180;6856;51.460;7.158;2022-09-06T04:36:14;100438.00;;;24.50
13570;BMP180;6856;51.460;7.158;2022-09-06T04:38:47;100455.00;;;24.50
13570;BMP180;6856;51.460;7.158;2022-09-06T04:41:21;100464.00;;;24.50
13570;BMP180;6856;51.460;7.158;2022-09-06T04:43:54;100465.00;;;24.50
13570;BMP180;6856;51.460;7.158;2022-09-06T04:46:29;100477.00;;;24.50
13570;BMP180;6856;51.460;7.158;2022-09-06T04:49:03;100482.00;;;24.50
13570;BMP180;6856;51.460;7.158;2022-09-06T04:51:38;100473.00;;;24.50
13570;BMP180;6856;51.460;7.158;2022-09-06T04:54:15;100481.00;;;24.50
13570;BMP180;6856;51.460;7.158;2022-09-06T04:56:48;100487.00;;;24.50
13570;BMP180;6856;51.460;7.158;2022-09-06T04:59:22;100489.00;;;24.50
13570;BMP180;6856;51.460;7.158;2022-09-06T05:01:55;100468.00;;;24.50
13570;BMP180;6856;51.460;7.158;2022-09-06T05:04:29;100496.00;;;24.50
13570;BMP180;6856;51.460;7.158;2022-09-06T05:07:06;100484.00;;;24.50
13570;BMP180;6856;51.460;7.158;2022-09-06T05:09:40;100494.00;;;24.50
13570;BMP180;6856;51.460;7.158;2022-09-06T05:12:13;100492.00;;;24.50
13570;BMP180;6856;51.460;7.158;2022-09-06T05:14:47;100486.00;;;24.50
13570;BMP180;6856;51.460;7.158;2022-09-06T05:17:20;100483.00;;;24.50
13570;BMP180;6856;51.460;7.158;2022-09-06T05:19:54;100487.00;;;24.50
13570;BMP180;6856;51.460;7.158;2022-09-06T05:22:29;100487.00;;;24.50
13570;BMP180;6856;51.460;7.158;2022-09-06T05:25:03;100482.00;;;24.50
13570;BMP180;6856;51.460;7.158;2022-09-06T05:27:37;100494.00;;;24.60
13570;BMP180;6856;51.460;7.158;2022-09-06T05:30:12;100489.00;;;24.60
13570;BMP180;6856;51.460;7.158;2022-09-06T05:32:45;100487.00;;;24.60
13570;BMP180;6856;51.460;7.158;2022-09-06T05:35:19;100499.00;;;24.60
13570;BMP180;6856;51.460;7.158;2022-09-06T05:37:54;100479.00;;;24.50
13570;BMP180;6856;51.460;7.158;2022-09-06T05:40:27;100490.00;;;24.60
13570;BMP180;6856;51.460;7.158;2022-09-06T05:43:01;100500.00;;;24.60
13570;BMP180;6856;51.460;7.158;2022-09-06T05:45:34;100494.00;;;24.60
13570;BMP180;6856;51.460;7.158;2022-09-06T05:48:08;100501.00;;;24.60
13570;BMP180;6856;51.460;7.158;2022-09-06T05:50:41;100496.00;;;24.50
13570;BMP180;6856;51.460;7.158;2022-09-06T05:53:16;100476.00;;;24.50
13570;BMP180;6856;51.460;7.158;2022-09-06T05:55:50;100490.00;;;24.50
13570;BMP180;6856;51.460;7.158;2022-09-06T05:58:23;100444.00;;;24.50
13570;BMP180;6856;51.460;7.158;2022-09-06T06:01:05;100486.00;;;24.50
13570;BMP180;6856;51.460;7.158;2022-09-06T06:03:40;100479.00;;;24.50
13570;BMP180;6856;51.460;7.158;2022-09-06T06:06:14;100476.00;;;24.40
13570;BMP180;6856;51.460;7.158;2022-09-06T06:08:49;100467.00;;;24.40
13570;BMP180;6856;51.460;7.158;2022-09-06T06:11:26;100476.00;;;24.30
13570;BMP180;6856;51.460;7.158;2022-09-06T06:14:01;100476.00;;;24.30
13570;BMP180;6856;51.460;7.158;2022-09-06T06:16:36;100467.00;;;24.40
13570;BMP180;6856;51.460;7.158;2022-09-06T06:19:10;100453.00;;;24.30
13570;BMP180;6856;51.460;7.158;2022-09-06T06:21:43;100471.00;;;24.30
13570;BMP180;6856;51.460;7.158;2022-09-06T06:24:18;100467.00;;;24.40
13570;BMP180;6856;51.460;7.158;2022-09-06T06:26:52;100469.00;;;24.40
13570;BMP180;6856;51.460;7.158;2022-09-06T06:29:27;100468.00;;;24.40
13570;BMP180;6856;51.460;7.158;2022-09-06T06:32:00;100467.00;;;24.50
13570;BMP180;6856;51.460;7.158;2022-09-06T06:34:34;100450.00;;;24.50
13570;BMP180;6856;51.460;7.158;2022-09-06T06:37:07;100460.00;;;24.60
13570;BMP180;6856;51.460;7.158;2022-09-06T06:39:42;100476.00;;;24.60
13570;BMP180;6856;51.460;7.158;2022-09-06T06:42:16;100406.00;;;24.70
13570;BMP180;6856;51.460;7.158;2022-09-06T06:44:49;100466.00;;;24.70
13570;BMP180;6856;51.460;7.158;2022-09-06T06:47:24;100470.00;;;24.80
13570;BMP180;6856;51.460;7.158;2022-09-06T06:49:57;100469.00;;;24.90
13570;BMP180;6856;51.460;7.158;2022-09-06T06:52:31;100448.00;;;24.90
13570;BMP180;6856;51.460;7.158;2022-09-06T06:55:07;100455.00;;;25.00
13570;BMP180;6856;51.460;7.158;2022-09-06T06:57:41;100456.00;;;25.00
13570;BMP180;6856;51.460;7.158;2022-09-06T07:00:15;100459.00;;;25.10
13570;BMP180;6856;51.460;7.158;2022-09-06T07:02:49;100453.00;;;25.20
13570;BMP180;6856;51.460;7.158;2022-09-06T07:05:24;100447.00;;;25.20
13570;BMP180;6856;51.460;7.158;2022-09-06T07:08:17;100454.00;;;25.30
13570;BMP180;6856;51.460;7.158;2022-09-06T07:10:52;100457.00;;;25.40
13570;BMP180;6856;51.460;7.158;2022-09-06T07:13:25;100463.00;;;25.50
13570;BMP180;6856;51.460;7.158;2022-09-06T07:16:08;100453.00;;;25.50
13570;BMP180;6856;51.460;7.158;2022-09-06T07:18:43;100456.00;;;25.50
13570;BMP180;6856;51.460;7.158;2022-09-06T07:21:22;100452.00;;;25.70
13570;BMP180;6856;51.460;7.158;2022-09-06T07:24:13;100457.00;;;25.80
13570;BMP180;6856;51.460;7.158;2022-09-06T07:26:48;100452.00;;;25.90
13570;BMP180;6856;51.460;7.158;2022-09-06T07:29:42;100459.00;;;26.00
13570;BMP180;6856;51.460;7.158;2022-09-06T07:32:15;100456.00;;;26.00
13570;BMP180;6856;51.460;7.158;2022-09-06T07:34:49;100467.00;;;26.20
13570;BMP180;6856;51.460;7.158;2022-09-06T07:37:22;100463.00;;;26.20
13570;BMP180;6856;51.460;7.158;2022-09-06T07:39:56;100455.00;;;26.40
13570;BMP180;6856;51.460;7.158;2022-09-06T07:42:31;100457.00;;;26.40
13570;BMP180;6856;51.460;7.158;2022-09-06T07:45:08;100465.00;;;26.50
13570;BMP180;6856;51.460;7.158;2022-09-06T07:47:42;100456.00;;;26.60
13570;BMP180;6856;51.460;7.158;2022-09-06T07:50:31;100455.00;;;26.80
13570;BMP180;6856;51.460;7.158;2022-09-06T07:53:22;100457.00;;;26.90
13570;BMP180;6856;51.460;7.158;2022-09-06T07:56:04;100452.00;;;27.00
13570;BMP180;6856;51.460;7.158;2022-09-06T07:58:40;100446.00;;;27.10
13570;BMP180;6856;51.460;7.158;2022-09-06T08:01:24;100448.00;;;27.20
13570;BMP180;6856;51.460;7.158;2022-09-06T08:03:59;100446.00;;;27.30
13570;BMP180;6856;51.460;7.158;2022-09-06T08:06:35;100453.00;;;27.40
13570;BMP180;6856;51.460;7.158;2022-09-06T08:09:29;100443.00;;;27.60
13570;BMP180;6856;51.460;7.158;2022-09-06T08:12:04;100452.00;;;27.70
13570;BMP180;6856;51.460;7.158;2022-09-06T08:14:40;100447.00;;;27.80
13570;BMP180;6856;51.460;7.158;2022-09-06T08:17:13;100450.00;;;27.90
13570;BMP180;6856;51.460;7.158;2022-09-06T08:19:47;100440.00;;;28.00
13570;BMP180;6856;51.460;7.158;2022-09-06T08:22:20;100454.00;;;28.10
13570;BMP180;6856;51.460;7.158;2022-09-06T08:24:54;100454.00;;;28.20
13570;BMP180;6856;51.460;7.158;2022-09-06T08:27:27;100450.00;;;28.30
13570;BMP180;6856;51.460;7.158;2022-09-06T08:30:03;100454.00;;;28.40
13570;BMP180;6856;51.460;7.158;2022-09-06T08:32:36;100449.00;;;28.50
13570;BMP180;6856;51.460;7.158;2022-09-06T08:35:12;100462.00;;;28.60
13570;BMP180;6856;51.460;7.158;2022-09-06T08:37:45;100471.00;;;28.70
13570;BMP180;6856;51.460;7.158;2022-09-06T08:40:22;100449.00;;;28.80
13570;BMP180;6856;51.460;7.158;2022-09-06T08:42:56;100459.00;;;28.90
13570;BMP180;6856;51.460;7.158;2022-09-06T08:45:32;100459.00;;;28.90
13570;BMP180;6856;51.460;7.158;2022-09-06T08:48:07;100464.00;;;29.10
13570;BMP180;6856;51.460;7.158;2022-09-06T08:50:53;100459.00;;;29.20
13570;BMP180;6856;51.460;7.158;2022-09-06T08:53:30;100459.00;;;29.20
13570;BMP180;6856;51.460;7.158;2022-09-06T08:56:14;100463.00;;;29.40
13570;BMP180;6856;51.460;7.158;2022-09-06T08:59:02;100464.00;;;29.50
13570;BMP180;6856;51.460;7.158;2022-09-06T09:01:58;100459.00;;;29.60
13570;BMP180;6856;51.460;7.158;2022-09-06T09:04:38;100458.00;;;29.70
13570;BMP180;6856;51.460;7.158;2022-09-06T09:07:43;100456.00;;;29.80
13570;BMP180;6856;51.460;7.158;2022-09-06T09:10:26;100450.00;;;29.80
13570;BMP180;6856;51.460;7.158;2022-09-06T09:13:03;100445.00;;;29.90
13570;BMP180;6856;51.460;7.158;2022-09-06T09:15:39;100455.00;;;30.10
13570;BMP180;6856;51.460;7.158;2022-09-06T09:18:21;100459.00;;;30.20
13570;BMP180;6856;51.460;7.158;2022-09-06T09:20:58;100456.00;;;30.30
13570;BMP180;6856;51.460;7.158;2022-09-06T09:23:31;100454.00;;;30.40
13570;BMP180;6856;51.460;7.158;2022-09-06T09:26:10;100436.00;;;30.50
13570;BMP180;6856;51.460;7.158;2022-09-06T09:29:02;100449.00;;;30.50
13570;BMP180;6856;51.460;7.158;2022-09-06T09:31:40;100463.00;;;30.60
13570;BMP180;6856;51.460;7.158;2022-09-06T09:34:30;100449.00;;;30.70
13570;BMP180;6856;51.460;7.158;2022-09-06T09:37:13;100449.00;;;30.80
13570;BMP180;6856;51.460;7.158;2022-09-06T09:40:14;100444.00;;;30.90
13570;BMP180;6856;51.460;7.158;2022-09-06T09:42:53;100446.00;;;31.00
13570;BMP180;6856;51.460;7.158;2022-09-06T09:45:32;100440.00;;;31.10
13570;BMP180;6856;51.460;7.158;2022-09-06T09:48:19;100440.00;;;31.10
13570;BMP180;6856;51.460;7.158;2022-09-06T09:51:15;100434.00;;;31.20
13570;BMP180;6856;51.460;7.158;2022-09-06T09:54:01;100429.00;;;31.30
13570;BMP180;6856;51.460;7.158;2022-09-06T09:56:45;100404.00;;;31.30
13570;BMP180;6856;51.460;7.158;2022-09-06T09:59:26;100429.00;;;31.40
13570;BMP180;6856;51.460;7.158;2022-09-06T10:02:16;100433.00;;;31.50
13570;BMP180;6856;51.460;7.158;2022-09-06T10:04:59;100424.00;;;31.50
13570;BMP180;6856;51.460;7.158;2022-09-06T10:07:42;100425.00;;;31.60
13570;BMP180;6856;51.460;7.158;2022-09-06T10:10:22;100415.00;;;31.80
13570;BMP180;6856;51.460;7.158;2022-09-06T10:13:07;100422.00;;;31.90
13570;BMP180;6856;51.460;7.158;2022-09-06T10:15:42;100422.00;;;32.00
13570;BMP180;6856;51.460;7.158;2022-09-06T10:18:28;100428.00;;;32.10
13570;BMP180;6856;51.460;7.158;2022-09-06T10:21:04;100429.00;;;32.20
13570;BMP180;6856;51.460;7.158;2022-09-06T10:24:05;100423.00;;;32.30
13570;BMP180;6856;51.460;7.158;2022-09-06T10:27:00;100418.00;;;32.30
13570;BMP180;6856;51.460;7.158;2022-09-06T10:29:43;100406.00;;;32.40
13570;BMP180;6856;51.460;7.158;2022-09-06T10:32:36;100407.00;;;32.40
13570;BMP180;6856;51.460;7.158;2022-09-06T10:35:21;100417.00;;;32.50
13570;BMP180;6856;51.460;7.158;2022-09-06T10:38:23;100409.00;;;32.60
13570;BMP180;6856;51.460;7.158;2022-09-06T10:41:22;100415.00;;;32.60
13570;BMP180;6856;51.460;7.158;2022-09-06T10:44:10;100411.00;;;32.70
13570;BMP180;6856;51.460;7.158;2022-09-06T10:46:56;100402.00;;;32.70
13570;BMP180;6856;51.460;7.158;2022-09-06T10:49:34;100415.00;;;32.80
13570;BMP180;6856;51.460;7.158;2022-09-06T10:52:15;100407.00;;;32.90
13570;BMP180;6856;51.460;7.158;2022-09-06T10:54:56;100410.00;;;32.90
13570;BMP180;6856;51.460;7.158;2022-09-06T10:57:44;100417.00;;;33.00
13570;BMP180;6856;51.460;7.158;2022-09-06T11:00:44;100402.00;;;33.00
13570;BMP180;6856;51.460;7.158;2022-09-06T11:03:28;100409.00;;;33.10
13570;BMP180;6856;51.460;7.158;2022-09-06T11:06:31;100403.00;;;33.20
13570;BMP180;6856;51.460;7.158;2022-09-06T11:09:18;100407.00;;;33.30
13570;BMP180;6856;51.460;7.158;2022-09-06T11:12:07;100413.00;;;33.40
13570;BMP180;6856;51.460;7.158;2022-09-06T11:14:45;100390.00;;;33.40
13570;BMP180;6856;51.460;7.158;2022-09-06T11:17:37;100414.00;;;33.50
13570;BMP180;6856;51.460;7.158;2022-09-06T11:20:21;100408.00;;;33.60
13570;BMP180;6856;51.460;7.158;2022-09-06T11:23:39;100411.00;;;33.70
13570;BMP180;6856;51.460;7.158;2022-09-06T11:26:33;100405.00;;;33.70
13570;BMP180;6856;51.460;7.158;2022-09-06T11:29:09;100405.00;;;33.80
13570;BMP180;6856;51.460;7.158;2022-09-06T11:31:54;100407.00;;;33.90
13570;BMP180;6856;51.460;7.158;2022-09-06T11:34:53;100406.00;;;34.00
13570;BMP180;6856;51.460;7.158;2022-09-06T11:37:33;100402.00;;;34.00
13570;BMP180;6856;51.460;7.158;2022-09-06T11:40:17;100413.00;;;34.10
13570;BMP180;6856;51.460;7.158;2022-09-06T11:46:58;100421.00;;;34.20
13570;BMP180;6856;51.460;7.158;2022-09-06T11:49:37;100400.00;;;34.10
13570;BMP180;6856;51.460;7.158;2022-09-06T11:52:59;100408.00;;;34.20
13570;BMP180;6856;51.460;7.158;2022-09-06T11:55:37;100403.00;;;34.20
13570;BMP180;6856;51.460;7.158;2022-09-06T11:58:24;100416.00;;;34.30
13570;BMP180;6856;51.460;7.158;2022-09-06T12:01:35;100405.00;;;34.30
13570;BMP180;6856;51.460;7.158;2022-09-06T12:04:12;100390.00;;;34.40
13570;BMP180;6856;51.460;7.158;2022-09-06T12:07:09;100398.00;;;34.30
13570;BMP180;6856;51.460;7.158;2022-09-06T12:09:44;100405.00;;;34.40
13570;BMP180;6856;51.460;7.158;2022-09-06T12:12:40;100407.00;;;34.40
13570;BMP180;6856;51.460;7.158;2022-09-06T12:15:23;100404.00;;;34.40
13570;BMP180;6856;51.460;7.158;2022-09-06T12:17:59;100395.00;;;34.50
13570;BMP180;6856;51.460;7.158;2022-09-06T12:21:01;100401.00;;;34.50
13570;BMP180;6856;51.460;7.158;2022-09-06T12:23:41;100390.00;;;34.60
13570;BMP180;6856;51.460;7.158;2022-09-06T12:26:48;100394.00;;;34.60
13570;BMP180;6856;51.460;7.158;2022-09-06T12:29:28;100400.00;;;34.70
13570;BMP180;6856;51.460;7.158;2022-09-06T12:32:03;100350.00;;;34.70
13570;BMP180;6856;51.460;7.158;2022-09-06T12:34:37;100387.00;;;34.80
13570;BMP180;6856;51.460;7.158;2022-09-06T12:37:30;100381.00;;;34.80
13570;BMP180;6856;51.460;7.158;2022-09-06T12:40:12;100387.00;;;34.80
13570;BMP180;6856;51.460;7.158;2022-09-06T12:42:48;100380.00;;;34.80
13570;BMP180;6856;51.460;7.158;2022-09-06T12:45:24;100382.00;;;34.70
13570;BMP180;6856;51.460;7.158;2022-09-06T12:48:09;100362.00;;;34.70
13570;BMP180;6856;51.460;7.158;2022-09-06T12:50:43;100380.00;;;34.70
13570;BMP180;6856;51.460;7.158;2022-09-06T12:53:21;100383.00;;;34.80
13570;BMP180;6856;51.460;7.158;2022-09-06T12:56:05;100368.00;;;34.90
13570;BMP180;6856;51.460;7.158;2022-09-06T12:58:39;100387.00;;;35.00
13570;BMP180;6856;51.460;7.158;2022-09-06T13:01:19;100370.00;;;35.00
13570;BMP180;6856;51.460;7.158;2022-09-06T13:04:01;100375.00;;;35.10
13570;BMP180;6856;51.460;7.158;2022-09-06T13:06:41;100379.00;;;35.10
13570;BMP180;6856;51.460;7.158;2022-09-06T13:09:20;100385.00;;;35.10
13570;BMP180;6856;51.460;7.158;2022-09-06T13:12:03;100374.00;;;35.20
13570;BMP180;6856;51.460;7.158;2022-09-06T13:14:37;100377.00;;;35.20
13570;BMP180;6856;51.460;7.158;2022-09-06T13:17:24;100370.00;;;35.20
13570;BMP180;6856;51.460;7.158;2022-09-06T13:20:11;100369.00;;;35.20
13570;BMP180;6856;51.460;7.158;2022-09-06T13:22:48;100371.00;;;35.20
13570;BMP180;6856;51.460;7.158;2022-09-06T13:25:28;100347.00;;;35.10
13570;BMP180;6856;51.460;7.158;2022-09-06T13:28:01;100365.00;;;35.20
13570;BMP180;6856;51.460;7.158;2022-09-06T13:30:40;100366.00;;;35.20
13570;BMP180;6856;51.460;7.158;2022-09-06T13:33:31;100288.00;;;35.10
13570;BMP180;6856;51.460;7.158;2022-09-06T13:36:19;100371.00;;;35.10
13570;BMP180;6856;51.460;7.158;2022-09-06T13:38:53;100358.00;;;34.90
13570;BMP180;6856;51.460;7.158;2022-09-06T13:41:54;100352.00;;;35.10
13570;BMP180;6856;51.460;7.158;2022-09-06T13:44:30;100344.00;;;35.10
13570;BMP180;6856;51.460;7.158;2022-09-06T13:47:05;100352.00;;;35.10
13570;BMP180;6856;51.460;7.158;2022-09-06T13:49:38;100342.00;;;35.20
13570;BMP180;6856;51.460;7.158;2022-09-06T13:52:13;100345.00;;;35.20
13570;BMP180;6856;51.460;7.158;2022-09-06T13:54:47;100340.00;;;35.20
13570;BMP180;6856;51.460;7.158;2022-09-06T13:57:22;100344.00;;;35.20
13570;BMP180;6856;51.460;7.158;2022-09-06T13:59:55;100354.00;;;35.30
13570;BMP180;6856;51.460;7.158;2022-09-06T14:02:29;100348.00;;;35.20
13570;BMP180;6856;51.460;7.158;2022-09-06T14:05:03;100343.00;;;35.30
13570;BMP180;6856;51.460;7.158;2022-09-06T14:07:37;100334.00;;;35.20
13570;BMP180;6856;51.460;7.158;2022-09-06T14:10:10;100330.00;;;35.20
13570;BMP180;6856;51.460;7.158;2022-09-06T14:12:45;100339.00;;;35.10
13570;BMP180;6856;51.460;7.158;2022-09-06T14:15:19;100343.00;;;35.10
13570;BMP180;6856;51.460;7.158;2022-09-06T14:17:52;100346.00;;;35.10
13570;BMP180;6856;51.460;7.158;2022-09-06T14:20:26;100341.00;;;35.10
13570;BMP180;6856;51.460;7.158;2022-09-06T14:23:00;100331.00;;;35.10
13570;BMP180;6856;51.460;7.158;2022-09-06T14:25:34;100338.00;;;35.10
13570;BMP180;6856;51.460;7.158;2022-09-06T14:28:10;100341.00;;;35.10
13570;BMP180;6856;51.460;7.158;2022-09-06T14:30:43;100336.00;;;35.00
13570;BMP180;6856;51.460;7.158;2022-09-06T14:33:17;100350.00;;;35.00
13570;BMP180;6856;51.460;7.158;2022-09-06T14:35:52;100333.00;;;35.00
13570;BMP180;6856;51.460;7.158;2022-09-06T14:38:25;100335.00;;;35.00
13570;BMP180;6856;51.460;7.158;2022-09-06T14:41:02;100333.00;;;35.00
13570;BMP180;6856;51.460;7.158;2022-09-06T14:43:38;100334.00;;;35.00
13570;BMP180;6856;51.460;7.158;2022-09-06T14:46:13;100324.00;;;35.00
13570;BMP180;6856;51.460;7.158;2022-09-06T14:48:48;100303.00;;;35.00
13570;BMP180;6856;51.460;7.158;2022-09-06T14:51:22;100317.00;;;35.00
13570;BMP180;6856;51.460;7.158;2022-09-06T14:54:02;100315.00;;;35.00
13570;BMP180;6856;51.460;7.158;2022-09-06T14:56:38;100316.00;;;35.00
13570;BMP180;6856;51.460;7.158;2022-09-06T14:59:14;100319.00;;;34.90
13570;BMP180;6856;51.460;7.158;2022-09-06T15:01:48;100306.00;;;35.00
13570;BMP180;6856;51.460;7.158;2022-09-06T15:04:22;100305.00;;;35.00
13570;BMP180;6856;51.460;7.158;2022-09-06T15:06:57;100313.00;;;35.00
13570;BMP180;6856;51.460;7.158;2022-09-06T15:09:32;100296.00;;;35.10
13570;BMP180;6856;51.460;7.158;2022-09-06T15:12:06;100298.00;;;35.10
13570;BMP180;6856;51.460;7.158;2022-09-06T15:14:41;100290.00;;;35.00
13570;BMP180;6856;51.460;7.158;2022-09-06T15:17:14;100288.00;;;35.10
13570;BMP180;6856;51.460;7.158;2022-09-06T15:19:48;100281.00;;;35.10
13570;BMP180;6856;51.460;7.158;2022-09-06T15:22:21;100279.00;;;35.10
13570;BMP180;6856;51.460;7.158;2022-09-06T15:24:55;100280.00;;;35.10
13570;BMP180;6856;51.460;7.158;2022-09-06T15:27:28;100281.00;;;35.10